Florence Regional Airport
KFLO : now visible

Airfield :











YOU CAN JOIN US ON...

 
LOGIN :

Register | Disclaimer

   EN    FR    IT 

 









Legend :    VFR   Marginal VFR   IFR   Intensive IFR   Very Intensive IFR
Visi :
Ceiling :
>= 8 km
>= 3000ft
5 to 8 km
1000 to 3000 ft
1500m to 5 km
500 to 1000 ft
800 to 1500m
200 to 500 ft
< 800m
< 200 ft
Symbols :   Thunderstorms  Fog  Heavy snow  Heavy precipitations  Wind > 20 kt






- Airport Elevation : 146 ft
- IATA code : FLO


KFLO - Florence Regional

CURRENT METAR :
  • 161153Z 00000KT 8SM BKN002 04/02 A3024 RMK AO2 SLP238 T00390022 10067 20033 53014

EXPIRED METARs :
  • 161141Z 00000KT 7SM BKN002 04/02 A3023 RMK AO2 T00390022
  • 161132Z 00000KT 8SM SCT003 04/03 A3023 RMK AO2 T00390028
  • 161122Z AUTO 00000KT 3SM BR CLR 04/03 A3023 RMK AO2 T00390028
  • 161110Z AUTO 00000KT 1 1/2SM BR CLR 04/03 A3022 RMK AO2 T00440028
  • 161058Z AUTO 00000KT 3/4SM BR CLR 04/03 A3022 RMK AO2 T00440028
  • 161053Z AUTO 00000KT 2SM BR CLR 04/03 A3022 RMK AO2 SLP232 T00440033
  • 161029Z AUTO 00000KT 7SM CLR 04/03 A3022 RMK AO2 T00390028
  • 161022Z AUTO 17003KT 2 1/2SM BR CLR 04/03 A3021 RMK AO2 T00390028
  • 160953Z AUTO 00000KT 1/4SM FG CLR 04/04 A3021 RMK AO2 SLP228 T00440039
  • 160921Z AUTO 00000KT 1/4SM FG CLR 05/04 A3019 RMK AO2 T00500039

TAF KFLO
Valid from the 16 at 12:00 until the 17 at 12:00 UTC


161146Z 1612/1712 00000KT P6SM BKN002
TEMPO 1612/1613 4SM BR
FM161300 21007KT P6SM FEW250
FM162100 19006KT P6SM SCT030 BKN250



MET'MAP, your aeronautical weather chart ! - Copyright ORBIFLY December 2007 - Disclaimer

ORBIFLY MET'MAP TEAM :

Programming & Development : Alexandra Zaïnal
Concept & original design : Baudouin d'Aumeries
Assistance for programming : Marc-Olivier Méhu
Technical & hardware support : Manuel Goepfert

Contact : metmap@orbifly.com




SOURCES & CREDITS :

   NOAA       Earth
Advisory